Time;durP1;ratioP1;P1;durP2;ratioP2;P2;SDS_P1;SDS_P2;PMS_P1;PMS_P2;Temp;Humidity;BMP_temperature;BMP_pressure;BME280_temperature;BME280_humidity;BME280_pressure;Samples;Min_cycle;Max_cycle;Signal;HPM_P1;HPM_P2
2022/12/14 00:01:09;;;;;;;26.03;10.30;;;;;;;;;;5041499;28;20017;-93
2022/12/14 00:03:35;;;;;;;28.97;9.83;;;;;;;;;;5034322;28;20104;-93
2022/12/14 00:06:09;;;;;;;29.83;10.63;;;;;;;;;;5053760;28;20053;-92
2022/12/14 00:08:35;;;;;;;30.17;10.33;;;;;;;;;;5033569;28;20017;-93
2022/12/14 00:11:00;;;;;;;30.27;10.80;;;;;;;;;;5031261;28;20345;-92
2022/12/14 00:13:25;;;;;;;25.70;10.03;;;;;;;;;;5028200;28;20025;-93
2022/12/14 00:15:50;;;;;;;24.47;9.80;;;;;;;;;;5043367;28;20021;-92
2022/12/14 00:18:15;;;;;;;20.30;9.10;;;;;;;;;;5048501;28;20414;-93
2022/12/14 00:20:41;;;;;;;25.20;9.63;;;;;;;;;;5023487;28;20481;-93
2022/12/14 00:23:06;;;;;;;21.00;7.93;;;;;;;;;;5038038;28;20096;-93
2022/12/14 00:25:31;;;;;;;26.00;9.40;;;;;;;;;;5049024;28;20021;-94
2022/12/14 00:27:56;;;;;;;26.13;9.40;;;;;;;;;;5026527;28;20039;-93
2022/12/14 00:30:21;;;;;;;26.93;9.67;;;;;;;;;;5035260;28;20030;-93
2022/12/14 00:32:47;;;;;;;23.17;9.67;;;;;;;;;;5035556;28;20120;-95
2022/12/14 00:35:15;;;;;;;22.70;8.57;;;;;;;;;;5035639;28;20009;-94
2022/12/14 00:37:40;;;;;;;24.97;9.67;;;;;;;;;;5047064;28;20020;-92
2022/12/14 00:40:06;;;;;;;19.40;8.40;;;;;;;;;;5031713;28;20116;-92
2022/12/14 00:42:31;;;;;;;24.47;8.57;;;;;;;;;;5030524;28;20083;-93
2022/12/14 00:44:57;;;;;;;21.37;7.70;;;;;;;;;;5031432;28;20022;-93
2022/12/14 00:47:22;;;;;;;17.37;7.47;;;;;;;;;;5030800;28;20021;-92
2022/12/14 00:49:47;;;;;;;22.20;8.23;;;;;;;;;;5047830;28;20024;-92
2022/12/14 00:52:12;;;;;;;17.00;7.30;;;;;;;;;;5047448;28;20108;-91
2022/12/14 00:54:38;;;;;;;29.67;9.33;;;;;;;;;;5048040;28;20040;-92
2022/12/14 00:57:03;;;;;;;22.67;9.13;;;;;;;;;;5029708;28;20154;-92
2022/12/14 00:59:28;;;;;;;18.73;8.23;;;;;;;;;;5029731;28;20034;-92
2022/12/14 01:01:53;;;;;;;22.43;8.10;;;;;;;;;;5031045;28;20699;-93
2022/12/14 01:04:21;;;;;;;21.50;8.20;;;;;;;;;;5031196;28;20040;-93
2022/12/14 01:06:47;;;;;;;20.63;8.20;;;;;;;;;;5032043;28;20075;-93
2022/12/14 01:09:13;;;;;;;22.73;8.50;;;;;;;;;;5043222;28;20457;-93
2022/12/14 01:11:38;;;;;;;22.93;8.03;;;;;;;;;;5047697;28;20014;-92
2022/12/14 01:14:04;;;;;;;24.80;8.87;;;;;;;;;;5031884;28;20458;-92
2022/12/14 01:16:29;;;;;;;24.67;9.40;;;;;;;;;;5030290;28;20330;-93
2022/12/14 01:18:55;;;;;;;21.20;8.13;;;;;;;;;;5031067;28;20021;-92
2022/12/14 01:21:21;;;;;;;22.73;8.77;;;;;;;;;;5032505;28;20084;-92
2022/12/14 01:23:50;;;;;;;22.97;8.13;;;;;;;;;;5032293;28;20469;-92
2022/12/14 01:26:16;;;;;;;19.80;8.10;;;;;;;;;;5030249;28;20030;-92
2022/12/14 01:28:41;;;;;;;21.83;8.80;;;;;;;;;;5030716;28;20022;-92
2022/12/14 01:31:11;;;;;;;22.60;8.30;;;;;;;;;;5030506;28;20534;-92
2022/12/14 01:33:36;;;;;;;25.43;8.97;;;;;;;;;;5030442;28;20014;-91
2022/12/14 01:36:03;;;;;;;23.60;8.57;;;;;;;;;;5034814;28;20037;-91
2022/12/14 01:38:28;;;;;;;23.57;8.63;;;;;;;;;;5050033;28;20477;-91
2022/12/14 01:40:56;;;;;;;22.07;9.17;;;;;;;;;;5051214;28;20044;-92
2022/12/14 01:43:21;;;;;;;27.43;10.63;;;;;;;;;;5050917;28;20094;-92
2022/12/14 01:45:46;;;;;;;24.07;10.10;;;;;;;;;;5034389;28;20509;-92
2022/12/14 01:48:12;;;;;;;25.10;10.63;;;;;;;;;;5033854;28;20033;-92
2022/12/14 01:50:40;;;;;;;28.43;11.57;;;;;;;;;;5034293;28;20095;-92
2022/12/14 01:53:09;;;;;;;26.00;11.70;;;;;;;;;;5034443;28;20025;-92
2022/12/14 01:55:39;;;;;;;24.60;11.03;;;;;;;;;;5034260;28;20029;-92
2022/12/14 01:58:08;;;;;;;25.87;12.07;;;;;;;;;;5034335;28;20028;-92
2022/12/14 02:00:33;;;;;;;27.73;11.10;;;;;;;;;;5033996;28;20116;-92
2022/12/14 02:03:08;;;;;;;29.10;12.03;;;;;;;;;;5034132;28;20053;-92
2022/12/14 02:05:34;;;;;;;28.60;10.13;;;;;;;;;;5020072;28;20029;-91
2022/12/14 02:07:59;;;;;;;24.87;9.67;;;;;;;;;;5033117;28;20079;-91
2022/12/14 02:10:26;;;;;;;25.87;10.80;;;;;;;;;;5050226;28;20481;-91
2022/12/14 02:12:55;;;;;;;22.53;8.33;;;;;;;;;;5033388;28;20021;-91
2022/12/14 02:15:20;;;;;;;24.00;8.77;;;;;;;;;;5047905;28;20105;-91
2022/12/14 02:17:45;;;;;;;23.60;9.33;;;;;;;;;;5034036;28;20112;-91
2022/12/14 02:20:12;;;;;;;23.17;9.27;;;;;;;;;;5050204;28;20048;-91
2022/12/14 02:22:37;;;;;;;25.97;9.77;;;;;;;;;;5034851;28;20021;-91
2022/12/14 02:25:21;;;;;;;21.57;9.33;;;;;;;;;;5050164;28;20147;-92
2022/12/14 02:27:46;;;;;;;20.23;7.77;;;;;;;;;;5034054;28;20088;-91
2022/12/14 02:30:25;;;;;;;23.57;9.20;;;;;;;;;;5048452;28;20033;-91
2022/12/14 02:33:00;;;;;;;25.80;9.97;;;;;;;;;;5022804;28;20096;-92
2022/12/14 02:35:32;;;;;;;25.57;10.07;;;;;;;;;;5034265;28;20418;-91
2022/12/14 02:38:03;;;;;;;22.05;8.98;;;;;;;;;;5033533;28;20057;-91
2022/12/14 02:40:47;;;;;;;26.83;9.27;;;;;;;;;;5049854;28;20104;-91
2022/12/14 02:43:31;;;;;;;23.00;9.80;;;;;;;;;;5032662;28;20021;-91
2022/12/14 02:45:56;;;;;;;21.80;8.93;;;;;;;;;;5034053;28;20018;-91
2022/12/14 02:48:23;;;;;;;26.50;9.80;;;;;;;;;;5049094;28;20098;-91
2022/12/14 02:51:14;;;;;;;19.27;9.00;;;;;;;;;;5035354;28;20018;-91
2022/12/14 02:53:48;;;;;;;23.97;8.90;;;;;;;;;;5033495;28;20025;-91
2022/12/14 02:56:16;;;;;;;23.40;9.37;;;;;;;;;;5032707;28;20096;-92
2022/12/14 02:58:46;;;;;;;22.83;8.43;;;;;;;;;;5049205;28;20060;-91
2022/12/14 03:01:13;;;;;;;25.03;9.80;;;;;;;;;;5048986;28;20308;-91
2022/12/14 03:03:39;;;;;;;25.43;9.97;;;;;;;;;;5049397;28;20204;-91
2022/12/14 03:06:13;;;;;;;34.90;10.97;;;;;;;;;;5032023;28;20025;-91
2022/12/14 03:08:39;;;;;;;30.03;10.80;;;;;;;;;;5026147;28;20030;-91
2022/12/14 03:11:06;;;;;;;33.20;12.30;;;;;;;;;;5032599;28;20021;-91
2022/12/14 03:13:50;;;;;;;29.07;12.03;;;;;;;;;;5032347;28;20421;-91
2022/12/14 03:16:23;;;;;;;36.57;13.70;;;;;;;;;;5031683;28;20053;-90
2022/12/14 03:19:03;;;;;;;34.17;14.23;;;;;;;;;;5032545;28;20114;-91
2022/12/14 03:21:31;;;;;;;36.97;14.33;;;;;;;;;;5032476;28;20029;-91
2022/12/14 03:23:57;;;;;;;33.00;14.60;;;;;;;;;;5032431;28;20720;-91
2022/12/14 03:26:31;;;;;;;30.20;12.83;;;;;;;;;;5031949;28;20076;-91
2022/12/14 03:29:01;;;;;;;34.57;13.03;;;;;;;;;;5020864;28;20457;-92
2022/12/14 03:31:37;;;;;;;31.37;11.70;;;;;;;;;;5032688;28;20155;-91
2022/12/14 03:34:04;;;;;;;29.47;11.70;;;;;;;;;;5021183;28;20022;-91
2022/12/14 03:36:33;;;;;;;28.53;11.43;;;;;;;;;;5031860;28;20117;-91
2022/12/14 03:39:01;;;;;;;29.80;11.23;;;;;;;;;;5032156;28;20022;-91
2022/12/14 03:41:29;;;;;;;24.63;11.13;;;;;;;;;;5032646;28;20056;-93
2022/12/14 03:44:17;;;;;;;29.97;10.73;;;;;;;;;;5032069;28;20075;-92
2022/12/14 03:46:45;;;;;;;30.57;10.33;;;;;;;;;;5025507;28;20047;-92
2022/12/14 03:49:23;;;;;;;25.83;10.03;;;;;;;;;;5048474;28;20120;-92
2022/12/14 03:52:06;;;;;;;27.90;9.27;;;;;;;;;;5049012;28;20476;-92
2022/12/14 03:54:45;;;;;;;22.27;9.07;;;;;;;;;;5020596;28;20462;-92
2022/12/14 03:57:10;;;;;;;25.07;9.77;;;;;;;;;;5031913;28;20025;-92
2022/12/14 03:59:39;;;;;;;26.83;9.13;;;;;;;;;;5047806;28;20361;-92
2022/12/14 04:02:04;;;;;;;28.60;9.80;;;;;;;;;;5048685;28;20025;-92
2022/12/14 04:04:33;;;;;;;28.87;10.23;;;;;;;;;;5030999;28;20029;-91
2022/12/14 04:07:01;;;;;;;22.97;9.27;;;;;;;;;;5031751;28;20381;-91
2022/12/14 04:09:50;;;;;;;24.73;9.80;;;;;;;;;;5031279;28;20025;-91
2022/12/14 04:20:46;;;;;;;22.37;8.37;;;;;;;;;;5032976;28;20056;-91
2022/12/14 04:23:15;;;;;;;32.57;9.70;;;;;;;;;;5031485;28;20067;-91
2022/12/14 04:26:03;;;;;;;26.97;10.77;;;;;;;;;;5047292;28;20108;-91
2022/12/14 04:31:19;;;;;;;22.70;8.93;;;;;;;;;;5033111;28;20044;-91
2022/12/14 04:33:56;;;;;;;29.23;10.03;;;;;;;;;;5031533;28;20025;-91
2022/12/14 04:36:31;;;;;;;29.17;10.33;;;;;;;;;;5030712;28;20124;-92
2022/12/14 04:39:03;;;;;;;29.50;10.43;;;;;;;;;;5031425;28;20013;-93
2022/12/14 04:41:31;;;;;;;32.53;10.02;;;;;;;;;;5032990;28;20018;-92
2022/12/14 04:43:59;;;;;;;24.33;9.63;;;;;;;;;;5030979;28;20018;-91
2022/12/14 04:46:26;;;;;;;31.00;9.53;;;;;;;;;;5047273;28;20030;-91
2022/12/14 04:49:00;;;;;;;24.80;9.90;;;;;;;;;;5032449;28;20167;-91
2022/12/14 04:51:44;;;;;;;27.00;10.20;;;;;;;;;;5032410;28;20552;-91
2022/12/14 04:54:12;;;;;;;23.83;10.03;;;;;;;;;;5042821;28;20106;-91
2022/12/14 04:56:45;;;;;;;32.03;10.93;;;;;;;;;;5042745;28;20021;-91
2022/12/14 04:59:10;;;;;;;29.20;10.73;;;;;;;;;;5029863;28;20017;-91
2022/12/14 05:01:35;;;;;;;35.03;9.73;;;;;;;;;;5030894;28;20083;-90
2022/12/14 05:04:12;;;;;;;24.70;9.97;;;;;;;;;;5032010;28;20017;-91
2022/12/14 05:06:53;;;;;;;28.60;10.27;;;;;;;;;;5045669;28;20068;-91
2022/12/14 05:09:29;;;;;;;27.37;10.77;;;;;;;;;;5031278;28;20017;-91
2022/12/14 05:12:07;;;;;;;30.07;10.87;;;;;;;;;;5034875;28;20029;-91
2022/12/14 05:14:35;;;;;;;26.20;9.93;;;;;;;;;;5033871;28;20112;-91
2022/12/14 05:17:02;;;;;;;26.47;10.33;;;;;;;;;;5036156;28;20025;-91
2022/12/14 05:19:27;;;;;;;23.90;9.80;;;;;;;;;;5034988;28;20075;-92
2022/12/14 05:21:53;;;;;;;27.37;10.43;;;;;;;;;;5052127;28;20465;-92
2022/12/14 05:24:18;;;;;;;25.03;10.33;;;;;;;;;;5035324;28;20032;-92
2022/12/14 05:26:43;;;;;;;23.23;9.57;;;;;;;;;;5034386;28;20164;-92
2022/12/14 05:29:09;;;;;;;31.03;11.13;;;;;;;;;;5034708;28;20108;-91
2022/12/14 05:31:34;;;;;;;32.10;10.87;;;;;;;;;;5035535;28;20025;-92
2022/12/14 05:33:59;;;;;;;26.73;10.87;;;;;;;;;;5035042;28;20029;-92
2022/12/14 05:36:24;;;;;;;26.73;10.63;;;;;;;;;;5034589;28;20083;-92
2022/12/14 05:38:50;;;;;;;30.53;11.57;;;;;;;;;;5034984;28;20528;-92
2022/12/14 05:41:15;;;;;;;26.77;10.43;;;;;;;;;;5035140;28;20029;-92
2022/12/14 05:43:40;;;;;;;24.37;10.37;;;;;;;;;;5035664;28;20053;-89
2022/12/14 05:46:06;;;;;;;25.87;10.23;;;;;;;;;;5034000;28;20041;-91
2022/12/14 05:48:32;;;;;;;25.70;10.03;;;;;;;;;;5035820;28;20422;-92
2022/12/14 05:51:07;;;;;;;26.07;10.10;;;;;;;;;;5036182;28;20442;-92
2022/12/14 05:53:33;;;;;;;28.60;9.83;;;;;;;;;;5034645;28;20048;-91
2022/12/14 05:55:58;;;;;;;28.43;10.07;;;;;;;;;;5050391;28;20022;-92
2022/12/14 05:58:23;;;;;;;27.60;10.30;;;;;;;;;;5035871;28;20112;-91
2022/12/14 06:00:49;;;;;;;25.87;10.40;;;;;;;;;;5034515;28;20083;-92
2022/12/14 06:03:14;;;;;;;25.03;9.83;;;;;;;;;;5034805;28;20021;-91
2022/12/14 06:05:39;;;;;;;28.50;11.10;;;;;;;;;;5049618;28;20032;-92
2022/12/14 06:08:04;;;;;;;26.87;10.30;;;;;;;;;;5034311;28;20040;-92
2022/12/14 06:10:29;;;;;;;25.73;9.37;;;;;;;;;;5034619;28;20028;-92
2022/12/14 06:12:55;;;;;;;28.57;10.53;;;;;;;;;;5034313;28;20104;-92
2022/12/14 06:15:21;;;;;;;25.50;9.90;;;;;;;;;;5033801;28;20392;-92
2022/12/14 06:17:46;;;;;;;26.60;10.83;;;;;;;;;;5034236;28;20104;-91
2022/12/14 06:20:12;;;;;;;32.40;10.20;;;;;;;;;;5035284;28;20020;-91
2022/12/14 06:22:39;;;;;;;27.83;9.97;;;;;;;;;;5022109;28;20046;-91
2022/12/14 06:25:04;;;;;;;26.37;9.80;;;;;;;;;;5032010;28;20091;-92
2022/12/14 06:27:29;;;;;;;27.13;9.43;;;;;;;;;;5033722;28;20091;-90
2022/12/14 06:29:54;;;;;;;25.83;9.67;;;;;;;;;;5034829;28;20132;-91
2022/12/14 06:32:20;;;;;;;27.67;10.83;;;;;;;;;;5035148;28;20021;-91
2022/12/14 06:34:45;;;;;;;26.63;10.40;;;;;;;;;;5033884;28;20031;-91
2022/12/14 06:37:10;;;;;;;36.13;11.47;;;;;;;;;;5032692;28;20018;-91
2022/12/14 06:39:36;;;;;;;23.37;10.13;;;;;;;;;;5033851;28;20488;-91
2022/12/14 06:42:01;;;;;;;30.93;10.43;;;;;;;;;;5035000;28;20112;-91
2022/12/14 06:44:26;;;;;;;28.63;10.27;;;;;;;;;;5033542;28;20374;-92
2022/12/14 06:46:52;;;;;;;34.43;13.50;;;;;;;;;;5033054;28;20136;-91
2022/12/14 06:49:17;;;;;;;38.83;17.10;;;;;;;;;;5033745;28;20030;-91
2022/12/14 06:51:42;;;;;;;41.27;17.87;;;;;;;;;;5033922;28;20029;-90
2022/12/14 06:54:09;;;;;;;29.30;13.63;;;;;;;;;;5033626;28;20108;-92
2022/12/14 06:56:35;;;;;;;26.43;9.83;;;;;;;;;;5032741;28;20029;-91
2022/12/14 06:59:00;;;;;;;26.23;11.10;;;;;;;;;;5034340;28;20045;-91
2022/12/14 07:01:26;;;;;;;24.83;10.27;;;;;;;;;;5033420;28;20116;-91
2022/12/14 07:03:52;;;;;;;31.00;11.33;;;;;;;;;;5033296;28;20477;-91
2022/12/14 07:06:18;;;;;;;23.23;10.13;;;;;;;;;;5032555;28;20018;-91
2022/12/14 07:08:43;;;;;;;25.77;10.60;;;;;;;;;;5025567;28;20243;-91
2022/12/14 07:11:10;;;;;;;26.63;10.17;;;;;;;;;;5048365;28;20010;-91
2022/12/14 07:13:36;;;;;;;22.63;9.60;;;;;;;;;;5028571;28;20018;-92
2022/12/14 07:16:03;;;;;;;27.90;10.17;;;;;;;;;;5049881;28;20615;-91
2022/12/14 07:18:29;;;;;;;30.03;10.93;;;;;;;;;;5031926;28;20433;-91
2022/12/14 07:21:05;;;;;;;24.73;10.33;;;;;;;;;;5033101;28;20057;-91
2022/12/14 07:23:31;;;;;;;28.87;9.80;;;;;;;;;;5032802;28;20026;-91
2022/12/14 07:26:00;;;;;;;23.97;9.53;;;;;;;;;;5049468;28;20044;-91
2022/12/14 07:28:26;;;;;;;26.77;10.87;;;;;;;;;;5047894;28;20029;-91
2022/12/14 07:30:53;;;;;;;27.97;11.07;;;;;;;;;;5032111;28;20385;-91
2022/12/14 07:33:19;;;;;;;27.07;11.47;;;;;;;;;;5032568;28;20019;-91
2022/12/14 07:35:44;;;;;;;31.17;12.27;;;;;;;;;;5032567;28;20108;-91
2022/12/14 07:38:09;;;;;;;29.97;11.10;;;;;;;;;;5031375;28;20458;-91
2022/12/14 07:40:35;;;;;;;32.47;10.37;;;;;;;;;;5033502;28;20017;-91
2022/12/14 07:43:00;;;;;;;28.50;10.57;;;;;;;;;;5032611;28;20025;-91
2022/12/14 07:45:25;;;;;;;28.63;11.90;;;;;;;;;;5032477;28;20013;-91
2022/12/14 07:47:51;;;;;;;27.53;11.67;;;;;;;;;;5032697;28;20021;-91
2022/12/14 07:50:16;;;;;;;31.23;10.77;;;;;;;;;;5031424;28;20029;-89
2022/12/14 07:52:41;;;;;;;29.47;11.17;;;;;;;;;;5032522;28;20045;-91
2022/12/14 07:55:07;;;;;;;28.47;10.57;;;;;;;;;;5032260;28;20028;-90
2022/12/14 07:57:33;;;;;;;30.10;11.70;;;;;;;;;;5033459;28;20071;-91
2022/12/14 07:59:58;;;;;;;33.83;11.93;;;;;;;;;;5030735;28;20396;-91
2022/12/14 08:02:23;;;;;;;29.43;11.40;;;;;;;;;;5034421;28;20021;-91
2022/12/14 08:04:48;;;;;;;31.57;10.50;;;;;;;;;;5013697;28;20037;-90
2022/12/14 08:07:13;;;;;;;28.37;11.53;;;;;;;;;;5040081;28;20021;-91
2022/12/14 08:09:39;;;;;;;29.67;11.60;;;;;;;;;;5027242;28;20029;-90
2022/12/14 08:12:04;;;;;;;29.50;10.83;;;;;;;;;;5032585;28;20017;-94
2022/12/14 08:14:29;;;;;;;33.87;12.47;;;;;;;;;;5030973;28;20477;-91
2022/12/14 08:16:54;;;;;;;36.73;14.03;;;;;;;;;;5032741;28;20307;-94
2022/12/14 08:19:19;;;;;;;42.37;14.10;;;;;;;;;;5029383;28;20088;-91
2022/12/14 08:21:45;;;;;;;40.60;15.50;;;;;;;;;;5029055;28;20022;-92
2022/12/14 08:24:11;;;;;;;36.53;12.07;;;;;;;;;;5030923;28;20486;-90
2022/12/14 08:26:36;;;;;;;31.77;11.60;;;;;;;;;;5030382;28;20045;-95
2022/12/14 08:29:02;;;;;;;21.10;9.97;;;;;;;;;;5027273;28;20101;-96
2022/12/14 08:31:27;;;;;;;35.33;10.67;;;;;;;;;;5030068;28;20036;-94
2022/12/14 08:33:53;;;;;;;27.63;11.07;;;;;;;;;;5030733;28;20017;-95
2022/12/14 08:36:23;;;;;;;30.63;11.60;;;;;;;;;;5030235;28;20033;-94
2022/12/14 08:38:55;;;;;;;29.50;11.60;;;;;;;;;;5028677;28;20025;-96
2022/12/14 08:41:20;;;;;;;28.50;11.40;;;;;;;;;;5029676;28;20036;-95
2022/12/14 08:43:48;;;;;;;31.10;12.93;;;;;;;;;;5029961;28;20034;-95
2022/12/14 08:46:13;;;;;;;36.53;11.43;;;;;;;;;;5027335;28;20022;-91
2022/12/14 08:48:38;;;;;;;30.90;11.57;;;;;;;;;;5031333;28;20021;-93
2022/12/14 08:51:05;;;;;;;30.20;11.23;;;;;;;;;;5031076;28;20541;-92
2022/12/14 08:53:30;;;;;;;29.17;11.53;;;;;;;;;;5032131;28;20494;-92
2022/12/14 08:55:55;;;;;;;27.20;10.53;;;;;;;;;;5032383;28;20026;-94
2022/12/14 08:58:21;;;;;;;31.17;11.43;;;;;;;;;;5029878;28;20025;-93
2022/12/14 09:00:46;;;;;;;36.73;12.07;;;;;;;;;;5034598;28;20108;-92
2022/12/14 09:03:11;;;;;;;32.20;11.73;;;;;;;;;;5031620;28;20017;-94
2022/12/14 09:05:37;;;;;;;33.43;12.37;;;;;;;;;;5032219;28;20026;-92
2022/12/14 09:08:02;;;;;;;31.13;11.60;;;;;;;;;;5028131;28;20473;-92
2022/12/14 09:10:28;;;;;;;36.73;12.27;;;;;;;;;;5038531;28;20445;-93
2022/12/14 09:12:53;;;;;;;31.43;12.03;;;;;;;;;;5044191;28;20172;-92
2022/12/14 09:15:18;;;;;;;28.17;11.97;;;;;;;;;;5030378;28;20063;-93
2022/12/14 09:17:43;;;;;;;38.20;13.47;;;;;;;;;;5023514;28;20437;-93
2022/12/14 09:20:12;;;;;;;30.53;12.67;;;;;;;;;;5019897;28;20022;-92
2022/12/14 09:22:37;;;;;;;34.03;12.27;;;;;;;;;;5030991;28;20053;-92
2022/12/14 09:25:03;;;;;;;29.87;12.33;;;;;;;;;;5032805;28;20033;-88
2022/12/14 09:27:28;;;;;;;33.97;12.97;;;;;;;;;;5029289;28;20060;-90
2022/12/14 09:29:54;;;;;;;36.70;13.77;;;;;;;;;;5039018;28;20083;-93
2022/12/14 09:32:19;;;;;;;29.67;12.87;;;;;;;;;;5032268;28;20607;-89
2022/12/14 09:34:44;;;;;;;32.20;11.93;;;;;;;;;;5039121;28;20353;-95
2022/12/14 09:37:09;;;;;;;31.30;12.57;;;;;;;;;;5050281;28;20033;-96
2022/12/14 09:39:36;;;;;;;30.07;12.33;;;;;;;;;;5034288;28;20013;-91
2022/12/14 09:42:01;;;;;;;31.43;12.50;;;;;;;;;;5022505;28;20033;-90
2022/12/14 09:44:37;;;;;;;30.30;12.50;;;;;;;;;;5026847;28;20041;-91
2022/12/14 09:47:17;;;;;;;32.43;12.27;;;;;;;;;;5028189;28;20025;-90
2022/12/14 09:49:48;;;;;;;30.73;10.83;;;;;;;;;;5029385;28;20103;-91
2022/12/14 09:52:15;;;;;;;31.90;11.70;;;;;;;;;;5028674;28;20071;-92
2022/12/14 09:54:42;;;;;;;32.33;11.77;;;;;;;;;;5030425;28;20027;-89
2022/12/14 09:57:20;;;;;;;27.73;10.30;;;;;;;;;;5048212;28;20089;-95
2022/12/14 09:59:46;;;;;;;30.50;11.10;;;;;;;;;;5035296;28;20110;-94
2022/12/14 10:02:20;;;;;;;25.70;10.83;;;;;;;;;;5035908;28;20026;-94
2022/12/14 10:04:51;;;;;;;30.50;10.83;;;;;;;;;;5035874;28;20105;-94
2022/12/14 10:07:21;;;;;;;25.45;10.93;;;;;;;;;;5021270;28;20418;-92
2022/12/14 10:09:49;;;;;;;27.43;11.70;;;;;;;;;;5022537;28;20025;-91
2022/12/14 10:12:33;;;;;;;26.63;10.97;;;;;;;;;;5049635;28;20048;-95
2022/12/14 10:15:02;;;;;;;23.83;10.70;;;;;;;;;;5038291;28;20037;-92
2022/12/14 10:17:53;;;;;;;29.40;10.70;;;;;;;;;;5044534;28;20523;-95
2022/12/14 10:20:25;;;;;;;22.57;10.80;;;;;;;;;;5043872;28;20083;-92
2022/12/14 10:22:51;;;;;;;32.13;12.10;;;;;;;;;;5035833;28;20025;-93
2022/12/14 10:25:38;;;;;;;26.13;11.67;;;;;;;;;;5049890;28;20088;-93
2022/12/14 10:28:06;;;;;;;27.13;11.00;;;;;;;;;;5049148;28;20026;-91
2022/12/14 10:30:32;;;;;;;26.73;11.53;;;;;;;;;;5047852;28;20032;-91
2022/12/14 10:33:02;;;;;;;28.30;10.93;;;;;;;;;;5043063;28;20013;-93
2022/12/14 10:35:30;;;;;;;28.67;11.13;;;;;;;;;;5046260;28;20077;-93
2022/12/14 10:38:01;;;;;;;26.90;11.83;;;;;;;;;;5049373;28;20018;-93
2022/12/14 10:40:30;;;;;;;36.20;14.57;;;;;;;;;;5042125;28;20060;-92
2022/12/14 10:43:01;;;;;;;31.87;12.17;;;;;;;;;;5042650;28;20162;-93
2022/12/14 10:45:29;;;;;;;35.37;11.83;;;;;;;;;;5036174;28;20036;-93
2022/12/14 10:48:18;;;;;;;29.60;13.20;;;;;;;;;;5035740;28;20030;-95
2022/12/14 10:50:56;;;;;;;29.03;11.80;;;;;;;;;;5033507;28;20030;-92
2022/12/14 10:53:24;;;;;;;31.00;12.13;;;;;;;;;;5038874;28;20022;-95
2022/12/14 10:55:52;;;;;;;36.00;11.53;;;;;;;;;;5047327;28;20032;-94
2022/12/14 10:58:17;;;;;;;33.90;12.90;;;;;;;;;;5034764;28;20029;-91
2022/12/14 11:00:42;;;;;;;29.60;11.90;;;;;;;;;;5035152;28;20444;-92
2022/12/14 11:03:14;;;;;;;30.90;13.57;;;;;;;;;;5036184;28;20035;-90
2022/12/14 11:05:58;;;;;;;31.60;11.70;;;;;;;;;;5031346;28;20099;-91
2022/12/14 11:08:44;;;;;;;28.80;12.07;;;;;;;;;;5037830;28;20594;-88
2022/12/14 11:11:29;;;;;;;37.77;12.20;;;;;;;;;;5035254;28;20029;-90
2022/12/14 11:14:08;;;;;;;27.80;11.63;;;;;;;;;;5043565;28;20064;-89
2022/12/14 11:16:37;;;;;;;34.87;12.63;;;;;;;;;;5024079;28;20346;-89
2022/12/14 11:19:05;;;;;;;35.30;13.53;;;;;;;;;;5040286;28;20013;-89
2022/12/14 11:21:35;;;;;;;31.00;12.40;;;;;;;;;;5030421;28;20029;-89
2022/12/14 11:24:01;;;;;;;32.00;12.40;;;;;;;;;;5023219;28;20142;-89
2022/12/14 11:26:35;;;;;;;35.20;14.10;;;;;;;;;;5018992;28;20022;-88
2022/12/14 11:29:02;;;;;;;29.83;13.17;;;;;;;;;;5029057;28;20032;-89
2022/12/14 11:31:27;;;;;;;33.53;13.40;;;;;;;;;;5030059;28;20060;-88
2022/12/14 11:33:54;;;;;;;33.00;13.23;;;;;;;;;;5033097;28;20443;-87
2022/12/14 11:36:22;;;;;;;35.80;13.30;;;;;;;;;;5026710;28;20013;-89
2022/12/14 11:38:58;;;;;;;37.10;15.10;;;;;;;;;;5039271;28;20461;-88
2022/12/14 11:41:24;;;;;;;34.47;13.93;;;;;;;;;;5040165;28;20025;-86
2022/12/14 11:44:01;;;;;;;42.93;13.60;;;;;;;;;;5027080;28;20024;-88
2022/12/14 11:46:48;;;;;;;33.33;13.73;;;;;;;;;;5037472;28;20065;-88
2022/12/14 11:49:21;;;;;;;37.43;12.97;;;;;;;;;;5025097;28;20115;-87
2022/12/14 11:52:17;;;;;;;28.77;11.53;;;;;;;;;;5027783;28;20068;-88
2022/12/14 11:54:51;;;;;;;37.73;14.17;;;;;;;;;;5043161;28;20037;-88
2022/12/14 11:57:21;;;;;;;34.87;13.83;;;;;;;;;;5043041;28;20525;-87
2022/12/14 12:00:10;;;;;;;29.00;12.43;;;;;;;;;;5042399;28;20029;-88
2022/12/14 12:02:39;;;;;;;29.60;12.23;;;;;;;;;;5027969;28;20377;-87
2022/12/14 12:05:12;;;;;;;32.40;12.07;;;;;;;;;;5027451;28;20040;-87
2022/12/14 12:07:40;;;;;;;31.03;11.73;;;;;;;;;;5030139;28;20101;-87
2022/12/14 12:10:08;;;;;;;30.33;12.90;;;;;;;;;;5022111;28;20498;-87
2022/12/14 12:12:34;;;;;;;28.60;12.30;;;;;;;;;;5031097;28;20049;-86
2022/12/14 12:14:59;;;;;;;33.03;13.17;;;;;;;;;;5032967;28;20098;-87
2022/12/14 12:17:35;;;;;;;31.37;12.67;;;;;;;;;;5015935;28;20025;-87
2022/12/14 12:20:01;;;;;;;31.80;11.40;;;;;;;;;;5020596;28;20029;-87
2022/12/14 12:22:28;;;;;;;33.63;11.37;;;;;;;;;;5028165;28;20029;-88
2022/12/14 12:24:57;;;;;;;32.50;11.53;;;;;;;;;;5017774;28;20183;-90
2022/12/14 12:27:23;;;;;;;34.03;11.90;;;;;;;;;;5038244;28;20044;-86
2022/12/14 12:29:48;;;;;;;27.00;11.37;;;;;;;;;;5029441;28;20013;-84
2022/12/14 12:32:13;;;;;;;26.73;11.53;;;;;;;;;;5046931;28;20021;-84
2022/12/14 12:34:48;;;;;;;31.63;12.93;;;;;;;;;;5028287;28;20543;-85
2022/12/14 12:37:28;;;;;;;29.47;11.37;;;;;;;;;;5027778;28;20080;-85
2022/12/14 12:40:09;;;;;;;25.07;10.23;;;;;;;;;;5023897;28;20165;-85
2022/12/14 12:42:39;;;;;;;23.40;10.50;;;;;;;;;;5031172;28;20049;-85
2022/12/14 12:45:10;;;;;;;37.60;11.50;;;;;;;;;;5028990;28;20080;-86
2022/12/14 12:47:50;;;;;;;27.47;10.73;;;;;;;;;;5028905;28;20025;-84
2022/12/14 12:50:17;;;;;;;23.53;9.23;;;;;;;;;;5026990;28;20515;-84
2022/12/14 12:52:45;;;;;;;25.03;10.50;;;;;;;;;;5026796;28;20053;-85
2022/12/14 12:55:15;;;;;;;23.53;10.27;;;;;;;;;;5035704;28;20025;-84
2022/12/14 12:57:43;;;;;;;22.50;10.13;;;;;;;;;;5048536;28;20129;-85
2022/12/14 13:00:13;;;;;;;23.53;10.27;;;;;;;;;;5052640;28;20112;-87
2022/12/14 13:02:44;;;;;;;26.93;10.43;;;;;;;;;;5030191;28;20462;-86
2022/12/14 13:05:11;;;;;;;25.70;10.30;;;;;;;;;;5025661;28;20500;-85
2022/12/14 13:07:45;;;;;;;26.20;10.07;;;;;;;;;;5045125;28;20013;-86
2022/12/14 13:10:11;;;;;;;22.70;9.47;;;;;;;;;;5034441;28;20038;-84
2022/12/14 13:12:39;;;;;;;26.50;9.97;;;;;;;;;;5032544;28;20014;-86
2022/12/14 13:15:12;;;;;;;20.77;9.30;;;;;;;;;;5043681;28;20087;-86
2022/12/14 13:17:42;;;;;;;25.63;10.07;;;;;;;;;;5044969;28;20630;-88
2022/12/14 13:20:19;;;;;;;25.77;10.33;;;;;;;;;;5042039;28;20029;-84
2022/12/14 13:22:45;;;;;;;26.73;9.97;;;;;;;;;;5031456;28;20029;-86
2022/12/14 13:25:13;;;;;;;23.83;9.90;;;;;;;;;;5040196;28;20018;-87
2022/12/14 13:27:48;;;;;;;27.53;9.97;;;;;;;;;;5036159;28;20108;-85
2022/12/14 13:30:25;;;;;;;22.70;9.10;;;;;;;;;;5048368;28;20045;-86
2022/12/14 13:33:01;;;;;;;26.20;10.27;;;;;;;;;;5034240;28;20025;-85
2022/12/14 13:35:26;;;;;;;26.33;8.80;;;;;;;;;;5021363;28;20465;-86
2022/12/14 13:37:51;;;;;;;24.40;9.87;;;;;;;;;;5048968;28;20076;-87
2022/12/14 13:40:40;;;;;;;26.40;10.07;;;;;;;;;;5046012;28;20079;-85
2022/12/14 13:43:08;;;;;;;24.43;10.83;;;;;;;;;;5051609;28;20109;-85
2022/12/14 13:45:38;;;;;;;28.47;10.57;;;;;;;;;;5028623;28;20026;-85
2022/12/14 13:48:15;;;;;;;25.73;9.97;;;;;;;;;;5032799;28;20124;-86
2022/12/14 13:50:40;;;;;;;28.47;11.37;;;;;;;;;;5026712;28;20082;-86
2022/12/14 13:53:26;;;;;;;25.40;10.40;;;;;;;;;;5030018;28;20022;-84
2022/12/14 13:55:54;;;;;;;27.03;10.30;;;;;;;;;;5028354;28;20122;-87
2022/12/14 13:58:32;;;;;;;26.70;10.43;;;;;;;;;;5034346;28;20016;-85
2022/12/14 14:00:58;;;;;;;25.13;10.27;;;;;;;;;;5043626;28;20037;-85
2022/12/14 14:03:33;;;;;;;23.83;10.57;;;;;;;;;;5033152;28;20384;-84
2022/12/14 14:06:18;;;;;;;22.37;9.60;;;;;;;;;;5043942;28;20045;-85
2022/12/14 14:08:45;;;;;;;26.30;11.10;;;;;;;;;;5031657;28;20085;-85
2022/12/14 14:11:17;;;;;;;31.40;9.87;;;;;;;;;;5028945;28;20022;-86
2022/12/14 14:13:48;;;;;;;25.10;10.97;;;;;;;;;;5036636;28;20040;-84
2022/12/14 14:16:18;;;;;;;26.70;10.00;;;;;;;;;;5037549;28;20116;-85
2022/12/14 14:18:51;;;;;;;23.80;10.30;;;;;;;;;;5028126;28;20072;-85
2022/12/14 14:21:16;;;;;;;;;;;;;;;;;;5048464;28;20025;-85
2022/12/14 14:24:05;;;;;;;23.13;10.52;;;;;;;;;;5026419;28;19909;-81
2022/12/14 14:26:32;;;;;;;40.57;12.93;;;;;;;;;;5029598;28;20025;-83
2022/12/14 14:29:10;;;;;;;25.90;10.73;;;;;;;;;;5045744;28;20022;-83
2022/12/14 14:31:42;;;;;;;30.83;11.03;;;;;;;;;;5028291;28;20017;-85
2022/12/14 14:34:07;;;;;;;;;;;;;;;;;;5026916;28;20049;-84
2022/12/14 14:36:34;;;;;;;27.08;10.05;;;;;;;;;;5032200;28;19913;-85
2022/12/14 14:39:00;;;;;;;31.03;11.63;;;;;;;;;;5024698;28;20025;-84
2022/12/14 14:41:36;;;;;;;32.23;11.03;;;;;;;;;;5042886;28;20033;-85
2022/12/14 14:44:03;;;;;;;25.50;10.10;;;;;;;;;;5025667;28;20763;-85